sensor_id;sensor_type;location;lat;lon;timestamp;P1;durP1;ratioP1;P2;durP2;ratioP2
8331;SDS011;4203;48.144;14.118;2022-09-01T00:01:02;16.23;;;14.52;;
8331;SDS011;4203;48.144;14.118;2022-09-01T00:03:32;14.57;;;12.98;;
8331;SDS011;4203;48.144;14.118;2022-09-01T00:06:01;17.25;;;14.77;;
8331;SDS011;4203;48.144;14.118;2022-09-01T00:08:34;16.52;;;14.50;;
8331;SDS011;4203;48.144;14.118;2022-09-01T00:11:01;16.63;;;14.88;;
8331;SDS011;4203;48.144;14.118;2022-09-01T00:13:29;18.17;;;16.27;;
8331;SDS011;4203;48.144;14.118;2022-09-01T00:15:58;20.08;;;16.85;;
8331;SDS011;4203;48.144;14.118;2022-09-01T00:18:28;18.92;;;15.88;;
8331;SDS011;4203;48.144;14.118;2022-09-01T00:20:56;18.60;;;16.27;;
8331;SDS011;4203;48.144;14.118;2022-09-01T00:23:26;18.42;;;15.90;;
8331;SDS011;4203;48.144;14.118;2022-09-01T00:25:54;19.52;;;16.33;;
8331;SDS011;4203;48.144;14.118;2022-09-01T00:28:21;19.27;;;16.38;;
8331;SDS011;4203;48.144;14.118;2022-09-01T00:30:48;18.13;;;16.20;;
8331;SDS011;4203;48.144;14.118;2022-09-01T00:33:15;19.20;;;16.27;;
8331;SDS011;4203;48.144;14.118;2022-09-01T00:35:42;19.33;;;16.45;;
8331;SDS011;4203;48.144;14.118;2022-09-01T00:38:10;17.00;;;15.20;;
8331;SDS011;4203;48.144;14.118;2022-09-01T00:40:38;17.60;;;15.10;;
8331;SDS011;4203;48.144;14.118;2022-09-01T00:43:12;16.02;;;14.45;;
8331;SDS011;4203;48.144;14.118;2022-09-01T00:45:40;17.52;;;15.68;;
8331;SDS011;4203;48.144;14.118;2022-09-01T00:48:07;19.92;;;16.95;;
8331;SDS011;4203;48.144;14.118;2022-09-01T00:50:37;18.52;;;15.32;;
8331;SDS011;4203;48.144;14.118;2022-09-01T00:53:04;17.75;;;15.85;;
8331;SDS011;4203;48.144;14.118;2022-09-01T00:55:35;16.77;;;14.57;;
8331;SDS011;4203;48.144;14.118;2022-09-01T00:58:06;18.70;;;15.02;;
8331;SDS011;4203;48.144;14.118;2022-09-01T01:00:34;16.90;;;14.88;;
8331;SDS011;4203;48.144;14.118;2022-09-01T01:03:05;15.00;;;13.45;;
8331;SDS011;4203;48.144;14.118;2022-09-01T01:05:35;21.38;;;13.80;;
8331;SDS011;4203;48.144;14.118;2022-09-01T01:08:05;16.73;;;14.98;;
8331;SDS011;4203;48.144;14.118;2022-09-01T01:10:34;20.33;;;15.25;;
8331;SDS011;4203;48.144;14.118;2022-09-01T01:13:07;17.38;;;15.18;;
8331;SDS011;4203;48.144;14.118;2022-09-01T01:15:37;16.92;;;15.13;;
8331;SDS011;4203;48.144;14.118;2022-09-01T01:18:08;15.48;;;13.88;;
8331;SDS011;4203;48.144;14.118;2022-09-01T01:20:35;17.20;;;15.02;;
8331;SDS011;4203;48.144;14.118;2022-09-01T01:23:23;17.50;;;14.60;;
8331;SDS011;4203;48.144;14.118;2022-09-01T01:25:58;17.55;;;15.18;;
8331;SDS011;4203;48.144;14.118;2022-09-01T01:28:26;23.15;;;16.73;;
8331;SDS011;4203;48.144;14.118;2022-09-01T01:30:56;25.50;;;18.77;;
8331;SDS011;4203;48.144;14.118;2022-09-01T01:33:28;27.98;;;18.02;;
8331;SDS011;4203;48.144;14.118;2022-09-01T01:36:03;30.02;;;16.77;;
8331;SDS011;4203;48.144;14.118;2022-09-01T01:38:32;22.13;;;16.85;;
8331;SDS011;4203;48.144;14.118;2022-09-01T01:41:01;20.23;;;15.35;;
8331;SDS011;4203;48.144;14.118;2022-09-01T01:43:30;24.15;;;16.80;;
8331;SDS011;4203;48.144;14.118;2022-09-01T01:45:58;21.48;;;17.58;;
8331;SDS011;4203;48.144;14.118;2022-09-01T01:48:29;22.73;;;17.08;;
8331;SDS011;4203;48.144;14.118;2022-09-01T01:50:59;23.13;;;16.63;;
8331;SDS011;4203;48.144;14.118;2022-09-01T01:53:27;18.17;;;15.73;;
8331;SDS011;4203;48.144;14.118;2022-09-01T01:55:54;16.88;;;15.07;;
8331;SDS011;4203;48.144;14.118;2022-09-01T01:58:24;18.73;;;14.80;;
8331;SDS011;4203;48.144;14.118;2022-09-01T02:00:53;15.48;;;13.65;;
8331;SDS011;4203;48.144;14.118;2022-09-01T02:03:22;19.70;;;13.90;;
8331;SDS011;4203;48.144;14.118;2022-09-01T02:05:53;23.88;;;14.10;;
8331;SDS011;4203;48.144;14.118;2022-09-01T02:08:22;16.83;;;14.80;;
8331;SDS011;4203;48.144;14.118;2022-09-01T02:10:50;16.73;;;14.57;;
8331;SDS011;4203;48.144;14.118;2022-09-01T02:13:21;17.08;;;14.25;;
8331;SDS011;4203;48.144;14.118;2022-09-01T02:15:53;18.73;;;15.73;;
8331;SDS011;4203;48.144;14.118;2022-09-01T02:18:22;17.85;;;15.35;;
8331;SDS011;4203;48.144;14.118;2022-09-01T02:20:51;20.90;;;15.35;;
8331;SDS011;4203;48.144;14.118;2022-09-01T02:23:19;17.25;;;15.40;;
8331;SDS011;4203;48.144;14.118;2022-09-01T02:25:49;21.13;;;16.35;;
8331;SDS011;4203;48.144;14.118;2022-09-01T02:28:19;19.42;;;14.43;;
8331;SDS011;4203;48.144;14.118;2022-09-01T02:30:50;19.20;;;15.52;;
8331;SDS011;4203;48.144;14.118;2022-09-01T02:33:19;18.08;;;15.95;;
8331;SDS011;4203;48.144;14.118;2022-09-01T02:35:49;18.92;;;15.20;;
8331;SDS011;4203;48.144;14.118;2022-09-01T02:38:18;21.92;;;16.08;;
8331;SDS011;4203;48.144;14.118;2022-09-01T02:40:50;20.52;;;15.73;;
8331;SDS011;4203;48.144;14.118;2022-09-01T02:43:18;20.88;;;17.40;;
8331;SDS011;4203;48.144;14.118;2022-09-01T02:45:46;17.65;;;15.75;;
8331;SDS011;4203;48.144;14.118;2022-09-01T02:48:20;18.63;;;14.65;;
8331;SDS011;4203;48.144;14.118;2022-09-01T02:50:50;17.10;;;14.82;;
8331;SDS011;4203;48.144;14.118;2022-09-01T02:53:23;17.10;;;15.25;;
8331;SDS011;4203;48.144;14.118;2022-09-01T02:55:50;15.85;;;14.15;;
8331;SDS011;4203;48.144;14.118;2022-09-01T02:58:18;19.00;;;14.95;;
8331;SDS011;4203;48.144;14.118;2022-09-01T03:00:45;24.40;;;15.05;;
8331;SDS011;4203;48.144;14.118;2022-09-01T03:03:20;20.23;;;15.20;;
8331;SDS011;4203;48.144;14.118;2022-09-01T03:05:47;23.25;;;15.98;;
8331;SDS011;4203;48.144;14.118;2022-09-01T03:08:20;28.15;;;17.95;;
8331;SDS011;4203;48.144;14.118;2022-09-01T03:10:49;31.30;;;18.85;;
8331;SDS011;4203;48.144;14.118;2022-09-01T03:13:19;30.30;;;20.00;;
8331;SDS011;4203;48.144;14.118;2022-09-01T03:15:48;29.67;;;19.83;;
8331;SDS011;4203;48.144;14.118;2022-09-01T03:18:17;35.63;;;19.95;;
8331;SDS011;4203;48.144;14.118;2022-09-01T03:20:44;28.70;;;17.20;;
8331;SDS011;4203;48.144;14.118;2022-09-01T03:23:17;32.20;;;19.25;;
8331;SDS011;4203;48.144;14.118;2022-09-01T03:25:44;23.40;;;16.60;;
8331;SDS011;4203;48.144;14.118;2022-09-01T03:28:12;24.95;;;16.98;;
8331;SDS011;4203;48.144;14.118;2022-09-01T03:30:43;24.23;;;16.55;;
8331;SDS011;4203;48.144;14.118;2022-09-01T03:33:13;27.75;;;15.25;;
8331;SDS011;4203;48.144;14.118;2022-09-01T03:35:42;59.20;;;18.42;;
8331;SDS011;4203;48.144;14.118;2022-09-01T03:38:10;25.30;;;16.73;;
8331;SDS011;4203;48.144;14.118;2022-09-01T03:40:45;33.35;;;16.20;;
8331;SDS011;4203;48.144;14.118;2022-09-01T03:43:12;36.08;;;16.00;;
8331;SDS011;4203;48.144;14.118;2022-09-01T03:45:41;34.15;;;16.02;;
8331;SDS011;4203;48.144;14.118;2022-09-01T03:48:10;26.38;;;14.43;;
8331;SDS011;4203;48.144;14.118;2022-09-01T03:50:40;32.10;;;14.77;;
8331;SDS011;4203;48.144;14.118;2022-09-01T03:53:12;25.98;;;14.85;;
8331;SDS011;4203;48.144;14.118;2022-09-01T03:55:42;22.80;;;15.30;;
8331;SDS011;4203;48.144;14.118;2022-09-01T03:58:11;26.88;;;13.70;;
8331;SDS011;4203;48.144;14.118;2022-09-01T04:00:44;31.48;;;13.68;;
8331;SDS011;4203;48.144;14.118;2022-09-01T04:03:13;16.35;;;13.82;;
8331;SDS011;4203;48.144;14.118;2022-09-01T04:05:48;16.23;;;14.52;;
8331;SDS011;4203;48.144;14.118;2022-09-01T04:08:17;19.10;;;15.43;;
8331;SDS011;4203;48.144;14.118;2022-09-01T04:10:46;18.85;;;15.45;;
8331;SDS011;4203;48.144;14.118;2022-09-01T04:13:15;17.17;;;14.85;;
8331;SDS011;4203;48.144;14.118;2022-09-01T04:15:43;21.63;;;15.45;;
8331;SDS011;4203;48.144;14.118;2022-09-01T04:18:11;17.92;;;15.05;;
8331;SDS011;4203;48.144;14.118;2022-09-01T04:20:45;20.00;;;15.95;;
8331;SDS011;4203;48.144;14.118;2022-09-01T04:23:19;18.85;;;15.55;;
8331;SDS011;4203;48.144;14.118;2022-09-01T04:25:48;25.05;;;16.05;;
8331;SDS011;4203;48.144;14.118;2022-09-01T04:28:16;24.52;;;15.82;;
8331;SDS011;4203;48.144;14.118;2022-09-01T04:30:49;38.15;;;17.27;;
8331;SDS011;4203;48.144;14.118;2022-09-01T04:33:19;32.28;;;16.35;;
8331;SDS011;4203;48.144;14.118;2022-09-01T04:35:48;31.25;;;15.68;;
8331;SDS011;4203;48.144;14.118;2022-09-01T04:38:23;25.17;;;15.43;;
8331;SDS011;4203;48.144;14.118;2022-09-01T04:40:50;48.30;;;16.98;;
8331;SDS011;4203;48.144;14.118;2022-09-01T04:43:21;47.95;;;17.75;;
8331;SDS011;4203;48.144;14.118;2022-09-01T04:45:48;43.25;;;16.40;;
8331;SDS011;4203;48.144;14.118;2022-09-01T04:48:16;48.85;;;17.52;;
8331;SDS011;4203;48.144;14.118;2022-09-01T04:50:44;33.15;;;16.45;;
8331;SDS011;4203;48.144;14.118;2022-09-01T04:53:14;60.63;;;17.75;;
8331;SDS011;4203;48.144;14.118;2022-09-01T04:55:44;61.70;;;18.67;;
8331;SDS011;4203;48.144;14.118;2022-09-01T04:58:13;34.03;;;18.08;;
8331;SDS011;4203;48.144;14.118;2022-09-01T05:00:42;40.47;;;17.33;;
8331;SDS011;4203;48.144;14.118;2022-09-01T05:03:12;28.52;;;16.98;;
8331;SDS011;4203;48.144;14.118;2022-09-01T05:05:41;42.00;;;17.52;;
8331;SDS011;4203;48.144;14.118;2022-09-01T05:08:11;45.88;;;18.00;;
8331;SDS011;4203;48.144;14.118;2022-09-01T05:10:41;38.35;;;16.27;;
8331;SDS011;4203;48.144;14.118;2022-09-01T05:13:12;36.75;;;17.80;;
8331;SDS011;4203;48.144;14.118;2022-09-01T05:15:42;39.40;;;17.58;;
8331;SDS011;4203;48.144;14.118;2022-09-01T05:18:12;40.10;;;17.38;;
8331;SDS011;4203;48.144;14.118;2022-09-01T05:20:41;33.72;;;16.13;;
8331;SDS011;4203;48.144;14.118;2022-09-01T05:23:09;24.25;;;15.73;;
8331;SDS011;4203;48.144;14.118;2022-09-01T05:25:39;24.40;;;15.10;;
8331;SDS011;4203;48.144;14.118;2022-09-01T05:28:09;22.70;;;15.63;;
8331;SDS011;4203;48.144;14.118;2022-09-01T05:30:38;72.78;;;17.95;;
8331;SDS011;4203;48.144;14.118;2022-09-01T05:33:07;18.30;;;15.55;;
8331;SDS011;4203;48.144;14.118;2022-09-01T05:35:36;17.42;;;15.68;;
8331;SDS011;4203;48.144;14.118;2022-09-01T05:38:08;17.38;;;15.50;;
8331;SDS011;4203;48.144;14.118;2022-09-01T05:40:37;17.40;;;15.55;;
8331;SDS011;4203;48.144;14.118;2022-09-01T05:43:06;15.75;;;14.20;;
8331;SDS011;4203;48.144;14.118;2022-09-01T05:45:39;14.85;;;13.45;;
8331;SDS011;4203;48.144;14.118;2022-09-01T05:48:10;16.10;;;14.50;;
8331;SDS011;4203;48.144;14.118;2022-09-01T05:50:42;15.18;;;13.57;;
8331;SDS011;4203;48.144;14.118;2022-09-01T05:53:09;18.10;;;13.68;;
8331;SDS011;4203;48.144;14.118;2022-09-01T05:55:41;18.67;;;15.20;;
8331;SDS011;4203;48.144;14.118;2022-09-01T05:58:10;14.98;;;13.40;;
8331;SDS011;4203;48.144;14.118;2022-09-01T06:00:41;13.73;;;12.43;;
8331;SDS011;4203;48.144;14.118;2022-09-01T06:03:12;14.25;;;12.88;;
8331;SDS011;4203;48.144;14.118;2022-09-01T06:05:42;14.73;;;13.32;;
8331;SDS011;4203;48.144;14.118;2022-09-01T06:08:17;13.45;;;12.25;;
8331;SDS011;4203;48.144;14.118;2022-09-01T06:10:47;15.65;;;14.05;;
8331;SDS011;4203;48.144;14.118;2022-09-01T06:13:15;13.07;;;11.88;;
8331;SDS011;4203;48.144;14.118;2022-09-01T06:15:47;15.80;;;14.32;;
8331;SDS011;4203;48.144;14.118;2022-09-01T06:18:17;14.93;;;13.45;;
8331;SDS011;4203;48.144;14.118;2022-09-01T06:20:46;16.35;;;14.65;;
8331;SDS011;4203;48.144;14.118;2022-09-01T06:23:14;13.90;;;12.60;;
8331;SDS011;4203;48.144;14.118;2022-09-01T06:25:43;14.65;;;13.40;;
8331;SDS011;4203;48.144;14.118;2022-09-01T06:28:11;14.60;;;13.30;;
8331;SDS011;4203;48.144;14.118;2022-09-01T06:30:39;14.15;;;12.80;;
8331;SDS011;4203;48.144;14.118;2022-09-01T06:33:08;14.75;;;13.43;;
8331;SDS011;4203;48.144;14.118;2022-09-01T06:35:38;11.77;;;10.77;;
8331;SDS011;4203;48.144;14.118;2022-09-01T06:38:06;13.70;;;12.38;;
8331;SDS011;4203;48.144;14.118;2022-09-01T06:40:35;12.82;;;11.63;;
8331;SDS011;4203;48.144;14.118;2022-09-01T06:43:03;11.50;;;10.40;;
8331;SDS011;4203;48.144;14.118;2022-09-01T06:45:32;10.68;;;9.73;;
8331;SDS011;4203;48.144;14.118;2022-09-01T06:48:02;11.43;;;10.45;;
8331;SDS011;4203;48.144;14.118;2022-09-01T06:50:31;9.35;;;8.57;;
8331;SDS011;4203;48.144;14.118;2022-09-01T06:52:58;9.32;;;8.02;;
8331;SDS011;4203;48.144;14.118;2022-09-01T06:55:35;7.88;;;6.45;;
8331;SDS011;4203;48.144;14.118;2022-09-01T06:58:03;6.50;;;5.80;;
8331;SDS011;4203;48.144;14.118;2022-09-01T07:00:31;6.47;;;5.85;;
8331;SDS011;4203;48.144;14.118;2022-09-01T07:03:06;5.93;;;5.50;;
8331;SDS011;4203;48.144;14.118;2022-09-01T07:05:36;5.30;;;4.90;;
8331;SDS011;4203;48.144;14.118;2022-09-01T07:08:04;6.07;;;5.53;;
8331;SDS011;4203;48.144;14.118;2022-09-01T07:10:37;5.28;;;4.78;;
8331;SDS011;4203;48.144;14.118;2022-09-01T07:13:10;4.63;;;4.22;;
8331;SDS011;4203;48.144;14.118;2022-09-01T07:15:44;4.90;;;4.60;;
8331;SDS011;4203;48.144;14.118;2022-09-01T07:18:12;4.90;;;4.50;;
8331;SDS011;4203;48.144;14.118;2022-09-01T07:20:43;6.65;;;4.97;;
8331;SDS011;4203;48.144;14.118;2022-09-01T07:23:13;4.40;;;4.10;;
8331;SDS011;4203;48.144;14.118;2022-09-01T07:25:41;4.95;;;4.63;;
8331;SDS011;4203;48.144;14.118;2022-09-01T07:28:11;5.00;;;4.50;;
8331;SDS011;4203;48.144;14.118;2022-09-01T07:30:40;5.40;;;4.90;;
8331;SDS011;4203;48.144;14.118;2022-09-01T07:33:09;5.13;;;4.57;;
8331;SDS011;4203;48.144;14.118;2022-09-01T07:35:38;5.82;;;4.70;;
8331;SDS011;4203;48.144;14.118;2022-09-01T07:38:08;4.68;;;4.28;;
8331;SDS011;4203;48.144;14.118;2022-09-01T07:40:35;4.35;;;4.07;;
8331;SDS011;4203;48.144;14.118;2022-09-01T07:43:05;5.38;;;4.93;;
8331;SDS011;4203;48.144;14.118;2022-09-01T07:45:34;7.30;;;4.85;;
8331;SDS011;4203;48.144;14.118;2022-09-01T07:48:04;5.70;;;4.85;;
8331;SDS011;4203;48.144;14.118;2022-09-01T07:50:33;5.00;;;4.60;;
8331;SDS011;4203;48.144;14.118;2022-09-01T07:53:02;4.35;;;3.80;;
8331;SDS011;4203;48.144;14.118;2022-09-01T07:55:31;3.50;;;3.30;;
8331;SDS011;4203;48.144;14.118;2022-09-01T07:57:58;3.75;;;3.55;;
8331;SDS011;4203;48.144;14.118;2022-09-01T08:00:25;3.25;;;3.05;;
8331;SDS011;4203;48.144;14.118;2022-09-01T08:02:53;3.28;;;3.08;;
8331;SDS011;4203;48.144;14.118;2022-09-01T08:05:23;2.83;;;2.63;;
8331;SDS011;4203;48.144;14.118;2022-09-01T08:07:51;3.80;;;2.90;;
8331;SDS011;4203;48.144;14.118;2022-09-01T08:10:19;3.35;;;3.15;;
8331;SDS011;4203;48.144;14.118;2022-09-01T08:12:48;2.80;;;2.70;;
8331;SDS011;4203;48.144;14.118;2022-09-01T08:15:15;3.25;;;2.70;;
8331;SDS011;4203;48.144;14.118;2022-09-01T08:17:42;2.53;;;2.42;;
8331;SDS011;4203;48.144;14.118;2022-09-01T08:20:10;2.70;;;2.50;;
8331;SDS011;4203;48.144;14.118;2022-09-01T08:22:38;3.22;;;2.50;;
8331;SDS011;4203;48.144;14.118;2022-09-01T08:25:06;3.00;;;2.25;;
8331;SDS011;4203;48.144;14.118;2022-09-01T08:27:34;2.92;;;2.70;;
8331;SDS011;4203;48.144;14.118;2022-09-01T08:30:05;2.30;;;2.20;;
8331;SDS011;4203;48.144;14.118;2022-09-01T08:32:35;4.03;;;2.28;;
8331;SDS011;4203;48.144;14.118;2022-09-01T08:35:06;2.20;;;2.10;;
8331;SDS011;4203;48.144;14.118;2022-09-01T08:37:35;2.88;;;2.60;;
8331;SDS011;4203;48.144;14.118;2022-09-01T08:40:02;2.70;;;2.50;;
8331;SDS011;4203;48.144;14.118;2022-09-01T08:42:36;3.78;;;2.33;;
8331;SDS011;4203;48.144;14.118;2022-09-01T08:45:12;2.75;;;2.42;;
8331;SDS011;4203;48.144;14.118;2022-09-01T08:47:46;2.55;;;2.38;;
8331;SDS011;4203;48.144;14.118;2022-09-01T08:50:24;2.15;;;2.05;;
8331;SDS011;4203;48.144;14.118;2022-09-01T08:52:54;3.22;;;2.95;;
8331;SDS011;4203;48.144;14.118;2022-09-01T08:55:30;2.15;;;2.05;;
8331;SDS011;4203;48.144;14.118;2022-09-01T08:58:02;4.85;;;2.38;;
8331;SDS011;4203;48.144;14.118;2022-09-01T09:00:36;2.85;;;2.65;;
8331;SDS011;4203;48.144;14.118;2022-09-01T09:03:11;3.67;;;2.60;;
8331;SDS011;4203;48.144;14.118;2022-09-01T09:05:56;2.67;;;2.50;;
8331;SDS011;4203;48.144;14.118;2022-09-01T09:14:06;3.60;;;2.55;;
8331;SDS011;4203;48.144;14.118;2022-09-01T09:16:42;4.07;;;2.67;;
8331;SDS011;4203;48.144;14.118;2022-09-01T09:19:15;2.88;;;2.78;;
8331;SDS011;4203;48.144;14.118;2022-09-01T09:21:47;2.80;;;2.60;;
8331;SDS011;4203;48.144;14.118;2022-09-01T09:24:18;3.15;;;2.90;;
8331;SDS011;4203;48.144;14.118;2022-09-01T09:26:50;2.42;;;2.22;;
8331;SDS011;4203;48.144;14.118;2022-09-01T09:29:18;2.60;;;2.15;;
8331;SDS011;4203;48.144;14.118;2022-09-01T09:31:48;4.25;;;2.83;;
8331;SDS011;4203;48.144;14.118;2022-09-01T09:34:30;2.47;;;2.25;;
8331;SDS011;4203;48.144;14.118;2022-09-01T09:37:00;2.88;;;2.13;;
8331;SDS011;4203;48.144;14.118;2022-09-01T09:39:42;2.20;;;2.10;;
8331;SDS011;4203;48.144;14.118;2022-09-01T09:42:10;2.40;;;2.30;;
8331;SDS011;4203;48.144;14.118;2022-09-01T09:44:41;2.17;;;2.05;;
8331;SDS011;4203;48.144;14.118;2022-09-01T09:47:31;2.60;;;2.35;;
8331;SDS011;4203;48.144;14.118;2022-09-01T09:50:11;2.15;;;2.13;;
8331;SDS011;4203;48.144;14.118;2022-09-01T09:52:44;2.33;;;2.08;;
8331;SDS011;4203;48.144;14.118;2022-09-01T09:57:57;4.38;;;2.03;;
8331;SDS011;4203;48.144;14.118;2022-09-01T10:00:27;2.85;;;2.00;;
8331;SDS011;4203;48.144;14.118;2022-09-01T10:02:59;2.95;;;2.08;;
8331;SDS011;4203;48.144;14.118;2022-09-01T10:05:33;5.03;;;2.13;;
8331;SDS011;4203;48.144;14.118;2022-09-01T10:08:04;2.80;;;1.77;;
8331;SDS011;4203;48.144;14.118;2022-09-01T10:10:35;2.03;;;1.60;;
8331;SDS011;4203;48.144;14.118;2022-09-01T10:13:07;1.40;;;1.40;;
8331;SDS011;4203;48.144;14.118;2022-09-01T10:15:37;1.75;;;1.65;;
8331;SDS011;4203;48.144;14.118;2022-09-01T10:18:07;1.58;;;1.40;;
8331;SDS011;4203;48.144;14.118;2022-09-01T10:20:39;1.85;;;1.75;;
8331;SDS011;4203;48.144;14.118;2022-09-01T10:23:12;1.85;;;1.67;;
8331;SDS011;4203;48.144;14.118;2022-09-01T10:25:39;1.48;;;1.40;;
8331;SDS011;4203;48.144;14.118;2022-09-01T10:28:10;2.08;;;1.45;;
8331;SDS011;4203;48.144;14.118;2022-09-01T10:30:43;3.55;;;1.52;;
8331;SDS011;4203;48.144;14.118;2022-09-01T10:33:16;1.75;;;1.65;;
8331;SDS011;4203;48.144;14.118;2022-09-01T10:35:46;1.52;;;1.42;;
8331;SDS011;4203;48.144;14.118;2022-09-01T10:38:16;1.55;;;1.50;;
8331;SDS011;4203;48.144;14.118;2022-09-01T10:40:46;1.42;;;1.42;;
8331;SDS011;4203;48.144;14.118;2022-09-01T10:43:35;1.55;;;1.48;;
8331;SDS011;4203;48.144;14.118;2022-09-01T10:46:09;1.60;;;1.50;;
8331;SDS011;4203;48.144;14.118;2022-09-01T10:49:18;2.40;;;1.63;;
8331;SDS011;4203;48.144;14.118;2022-09-01T10:52:07;1.40;;;1.40;;
8331;SDS011;4203;48.144;14.118;2022-09-01T11:03:34;2.00;;;1.77;;
8331;SDS011;4203;48.144;14.118;2022-09-01T11:09:27;1.50;;;1.50;;
8331;SDS011;4203;48.144;14.118;2022-09-01T11:18:08;2.50;;;1.55;;
8331;SDS011;4203;48.144;14.118;2022-09-01T11:20:39;1.40;;;1.30;;
8331;SDS011;4203;48.144;14.118;2022-09-01T11:23:11;1.48;;;1.35;;
8331;SDS011;4203;48.144;14.118;2022-09-01T11:25:46;1.58;;;1.48;;
8331;SDS011;4203;48.144;14.118;2022-09-01T11:31:10;1.38;;;1.30;;
8331;SDS011;4203;48.144;14.118;2022-09-01T11:33:45;1.50;;;1.40;;
8331;SDS011;4203;48.144;14.118;2022-09-01T11:36:31;3.92;;;1.73;;
8331;SDS011;4203;48.144;14.118;2022-09-01T11:39:06;1.60;;;1.50;;
8331;SDS011;4203;48.144;14.118;2022-09-01T11:41:51;1.30;;;1.30;;
8331;SDS011;4203;48.144;14.118;2022-09-01T11:44:23;1.85;;;1.50;;
8331;SDS011;4203;48.144;14.118;2022-09-01T11:46:53;1.40;;;1.40;;
8331;SDS011;4203;48.144;14.118;2022-09-01T11:49:28;1.55;;;1.42;;
8331;SDS011;4203;48.144;14.118;2022-09-01T11:51:58;1.50;;;1.40;;
8331;SDS011;4203;48.144;14.118;2022-09-01T11:54:27;1.33;;;1.33;;
8331;SDS011;4203;48.144;14.118;2022-09-01T11:57:15;1.20;;;1.20;;
8331;SDS011;4203;48.144;14.118;2022-09-01T11:59:54;1.95;;;1.63;;
8331;SDS011;4203;48.144;14.118;2022-09-01T12:02:23;1.40;;;1.30;;
8331;SDS011;4203;48.144;14.118;2022-09-01T12:04:52;1.42;;;1.27;;
8331;SDS011;4203;48.144;14.118;2022-09-01T12:07:24;2.05;;;1.27;;
8331;SDS011;4203;48.144;14.118;2022-09-01T12:10:02;1.60;;;1.50;;
8331;SDS011;4203;48.144;14.118;2022-09-01T12:12:38;4.72;;;1.50;;
8331;SDS011;4203;48.144;14.118;2022-09-01T12:15:07;1.63;;;1.52;;
8331;SDS011;4203;48.144;14.118;2022-09-01T12:17:37;1.65;;;1.40;;
8331;SDS011;4203;48.144;14.118;2022-09-01T12:20:24;3.67;;;1.50;;
8331;SDS011;4203;48.144;14.118;2022-09-01T12:22:53;2.38;;;1.50;;
8331;SDS011;4203;48.144;14.118;2022-09-01T12:25:23;4.13;;;1.50;;
8331;SDS011;4203;48.144;14.118;2022-09-01T12:27:52;1.58;;;1.48;;
8331;SDS011;4203;48.144;14.118;2022-09-01T12:30:19;2.17;;;1.33;;
8331;SDS011;4203;48.144;14.118;2022-09-01T12:32:48;1.30;;;1.30;;
8331;SDS011;4203;48.144;14.118;2022-09-01T12:35:16;1.40;;;1.40;;
8331;SDS011;4203;48.144;14.118;2022-09-01T12:37:47;1.20;;;1.20;;
8331;SDS011;4203;48.144;14.118;2022-09-01T12:40:22;1.50;;;1.40;;
8331;SDS011;4203;48.144;14.118;2022-09-01T12:42:52;1.42;;;1.23;;
8331;SDS011;4203;48.144;14.118;2022-09-01T12:45:38;2.50;;;1.40;;
8331;SDS011;4203;48.144;14.118;2022-09-01T12:48:21;1.65;;;1.55;;
8331;SDS011;4203;48.144;14.118;2022-09-01T12:50:50;1.58;;;1.40;;
8331;SDS011;4203;48.144;14.118;2022-09-01T12:53:27;6.55;;;1.30;;
8331;SDS011;4203;48.144;14.118;2022-09-01T12:55:59;2.35;;;1.30;;
8331;SDS011;4203;48.144;14.118;2022-09-01T12:58:41;1.25;;;1.10;;
8331;SDS011;4203;48.144;14.118;2022-09-01T13:01:21;1.27;;;1.23;;
8331;SDS011;4203;48.144;14.118;2022-09-01T13:04:11;2.47;;;1.40;;
8331;SDS011;4203;48.144;14.118;2022-09-01T13:06:41;2.22;;;2.08;;
8331;SDS011;4203;48.144;14.118;2022-09-01T13:09:08;2.67;;;1.30;;
8331;SDS011;4203;48.144;14.118;2022-09-01T13:11:37;2.13;;;1.25;;
8331;SDS011;4203;48.144;14.118;2022-09-01T13:14:05;6.63;;;2.10;;
8331;SDS011;4203;48.144;14.118;2022-09-01T13:16:33;1.70;;;1.60;;
8331;SDS011;4203;48.144;14.118;2022-09-01T13:19:01;2.25;;;1.33;;
8331;SDS011;4203;48.144;14.118;2022-09-01T13:21:30;2.40;;;1.30;;
8331;SDS011;4203;48.144;14.118;2022-09-01T13:23:59;2.20;;;1.50;;
8331;SDS011;4203;48.144;14.118;2022-09-01T13:26:28;2.35;;;1.83;;
8331;SDS011;4203;48.144;14.118;2022-09-01T13:28:57;2.47;;;2.28;;
8331;SDS011;4203;48.144;14.118;2022-09-01T13:31:24;3.80;;;2.13;;
8331;SDS011;4203;48.144;14.118;2022-09-01T13:33:53;2.20;;;1.50;;
8331;SDS011;4203;48.144;14.118;2022-09-01T13:36:20;2.28;;;1.45;;
8331;SDS011;4203;48.144;14.118;2022-09-01T13:38:47;4.35;;;1.77;;
8331;SDS011;4203;48.144;14.118;2022-09-01T13:41:15;2.67;;;1.70;;
8331;SDS011;4203;48.144;14.118;2022-09-01T13:43:42;4.05;;;1.92;;
8331;SDS011;4203;48.144;14.118;2022-09-01T13:46:12;2.40;;;1.70;;
8331;SDS011;4203;48.144;14.118;2022-09-01T13:48:40;3.60;;;1.92;;
8331;SDS011;4203;48.144;14.118;2022-09-01T13:51:07;2.42;;;1.70;;
8331;SDS011;4203;48.144;14.118;2022-09-01T13:53:34;1.80;;;1.70;;
8331;SDS011;4203;48.144;14.118;2022-09-01T13:56:02;1.88;;;1.65;;
8331;SDS011;4203;48.144;14.118;2022-09-01T13:58:29;3.15;;;1.60;;
8331;SDS011;4203;48.144;14.118;2022-09-01T14:00:56;3.28;;;1.50;;
8331;SDS011;4203;48.144;14.118;2022-09-01T14:03:25;3.45;;;2.10;;
8331;SDS011;4203;48.144;14.118;2022-09-01T14:05:56;6.00;;;2.55;;
8331;SDS011;4203;48.144;14.118;2022-09-01T14:08:23;2.13;;;1.90;;
8331;SDS011;4203;48.144;14.118;2022-09-01T14:10:51;2.05;;;1.85;;
8331;SDS011;4203;48.144;14.118;2022-09-01T14:13:19;2.08;;;1.90;;
8331;SDS011;4203;48.144;14.118;2022-09-01T14:15:48;2.00;;;1.90;;
8331;SDS011;4203;48.144;14.118;2022-09-01T14:18:17;4.65;;;2.05;;
8331;SDS011;4203;48.144;14.118;2022-09-01T14:20:49;3.60;;;1.92;;
8331;SDS011;4203;48.144;14.118;2022-09-01T14:23:17;2.17;;;1.90;;
8331;SDS011;4203;48.144;14.118;2022-09-01T14:25:46;2.05;;;1.85;;
8331;SDS011;4203;48.144;14.118;2022-09-01T14:28:15;2.08;;;1.92;;
8331;SDS011;4203;48.144;14.118;2022-09-01T14:30:42;3.80;;;1.92;;
8331;SDS011;4203;48.144;14.118;2022-09-01T14:33:10;2.00;;;1.90;;
8331;SDS011;4203;48.144;14.118;2022-09-01T14:35:39;5.45;;;1.92;;
8331;SDS011;4203;48.144;14.118;2022-09-01T14:38:09;4.38;;;2.15;;
8331;SDS011;4203;48.144;14.118;2022-09-01T14:40:38;1.67;;;1.67;;
8331;SDS011;4203;48.144;14.118;2022-09-01T14:43:07;4.05;;;2.17;;
8331;SDS011;4203;48.144;14.118;2022-09-01T14:45:37;2.40;;;2.20;;
8331;SDS011;4203;48.144;14.118;2022-09-01T14:48:04;2.38;;;2.20;;
8331;SDS011;4203;48.144;14.118;2022-09-01T14:50:33;4.82;;;2.42;;
8331;SDS011;4203;48.144;14.118;2022-09-01T14:53:05;2.28;;;2.08;;
8331;SDS011;4203;48.144;14.118;2022-09-01T14:55:34;3.70;;;2.42;;
8331;SDS011;4203;48.144;14.118;2022-09-01T14:58:02;5.13;;;2.80;;
8331;SDS011;4203;48.144;14.118;2022-09-01T15:00:30;4.82;;;2.30;;
8331;SDS011;4203;48.144;14.118;2022-09-01T15:02:59;2.58;;;2.38;;
8331;SDS011;4203;48.144;14.118;2022-09-01T15:05:27;3.85;;;2.58;;
8331;SDS011;4203;48.144;14.118;2022-09-01T15:07:54;2.63;;;2.28;;
8331;SDS011;4203;48.144;14.118;2022-09-01T15:10:22;2.88;;;2.10;;
8331;SDS011;4203;48.144;14.118;2022-09-01T15:12:53;3.22;;;2.60;;
8331;SDS011;4203;48.144;14.118;2022-09-01T15:15:21;2.60;;;2.40;;
8331;SDS011;4203;48.144;14.118;2022-09-01T15:17:49;2.45;;;2.25;;
8331;SDS011;4203;48.144;14.118;2022-09-01T15:20:17;3.20;;;2.03;;
8331;SDS011;4203;48.144;14.118;2022-09-01T15:23:02;4.07;;;2.28;;
8331;SDS011;4203;48.144;14.118;2022-09-01T15:25:29;2.33;;;2.13;;
8331;SDS011;4203;48.144;14.118;2022-09-01T15:27:58;2.70;;;2.20;;
8331;SDS011;4203;48.144;14.118;2022-09-01T15:30:25;2.40;;;2.30;;
8331;SDS011;4203;48.144;14.118;2022-09-01T15:32:53;1.98;;;1.88;;
8331;SDS011;4203;48.144;14.118;2022-09-01T15:35:20;2.65;;;2.45;;
8331;SDS011;4203;48.144;14.118;2022-09-01T15:37:48;2.28;;;2.00;;